Time;durP1;ratioP1;P1;durP2;ratioP2;P2;SDS_P1;SDS_P2;PMS_P1;PMS_P2;Temp;Humidity;BMP_temperature;BMP_pressure;BME280_temperature;BME280_humidity;BME280_pressure;Samples;Min_cycle;Max_cycle;Signal;HPM_P1;HPM_P2
2023/09/13 00:01:45;;;;;;;0.10;0.10;;;;;;;;;;4895524;29;20038;-64
2023/09/13 00:04:11;;;;;;;0.20;0.20;;;;;;;;;;4926331;28;20045;-58
2023/09/13 00:06:36;;;;;;;0.20;0.20;;;;;;;;;;4899631;29;20036;-59
2023/09/13 00:09:03;;;;;;;0.10;0.10;;;;;;;;;;4896267;29;20118;-59
2023/09/13 00:11:29;;;;;;;;;;;;;;;;;;4898717;29;20032;-61
2023/09/13 00:13:54;;;;;;;0.20;0.20;;;;;;;;;;4897559;29;19968;-60
2023/09/13 00:16:19;;;;;;;0.10;0.10;;;;;;;;;;4898662;29;20047;-60
2023/09/13 00:18:45;;;;;;;0.20;0.20;;;;;;;;;;4896720;29;20446;-62
2023/09/13 00:21:11;;;;;;;0.20;0.20;;;;;;;;;;4897884;29;20475;-59
2023/09/13 00:23:37;;;;;;;0.20;0.20;;;;;;;;;;4926514;28;20040;-59
2023/09/13 00:26:02;;;;;;;0.20;0.20;;;;;;;;;;4899025;29;20043;-60
2023/09/13 00:28:27;;;;;;;0.20;0.20;;;;;;;;;;4898897;29;20044;-63
2023/09/13 00:30:53;;;;;;;0.20;0.20;;;;;;;;;;4925960;28;20040;-61
2023/09/13 00:33:18;;;;;;;0.10;0.10;;;;;;;;;;4901640;29;20080;-60
2023/09/13 00:35:44;;;;;;;0.20;0.20;;;;;;;;;;4919731;29;20044;-61
2023/09/13 00:38:09;;;;;;;0.10;0.10;;;;;;;;;;4899974;29;20750;-65
2023/09/13 00:40:34;;;;;;;0.20;0.20;;;;;;;;;;4900067;29;20040;-62
2023/09/13 00:43:00;;;;;;;0.20;0.20;;;;;;;;;;4902267;29;20040;-60
2023/09/13 00:45:25;;;;;;;0.20;0.20;;;;;;;;;;4931990;28;20044;-61
2023/09/13 00:47:51;;;;;;;0.20;0.20;;;;;;;;;;4911189;29;20074;-61
2023/09/13 00:50:16;;;;;;;0.20;0.20;;;;;;;;;;4901534;29;20057;-64
2023/09/13 00:52:43;;;;;;;0.20;0.20;;;;;;;;;;4929825;28;20394;-61
2023/09/13 00:55:09;;;;;;;0.20;0.20;;;;;;;;;;4899898;29;20048;-61
2023/09/13 00:57:35;;;;;;;0.10;0.10;;;;;;;;;;4906505;29;20032;-62
2023/09/13 01:00:10;;;;;;;0.10;0.10;;;;;;;;;;4930138;28;20037;-65
2023/09/13 01:02:38;;;;;;;0.20;0.20;;;;;;;;;;4898949;29;20032;-60
2023/09/13 01:05:04;;;;;;;0.10;0.10;;;;;;;;;;4929733;28;20041;-61
2023/09/13 01:07:31;;;;;;;0.10;0.10;;;;;;;;;;4901470;29;20040;-60
2023/09/13 01:09:56;;;;;;;0.20;0.20;;;;;;;;;;4901920;29;20079;-61
2023/09/13 01:12:22;;;;;;;0.17;0.17;;;;;;;;;;4901443;29;20119;-61
2023/09/13 01:14:48;;;;;;;0.10;0.10;;;;;;;;;;4901414;29;20060;-61
2023/09/13 01:17:15;;;;;;;0.10;0.10;;;;;;;;;;4903176;29;20080;-61
2023/09/13 01:19:52;;;;;;;0.20;0.20;;;;;;;;;;4901401;29;20399;-62
2023/09/13 01:22:23;;;;;;;0.20;0.20;;;;;;;;;;4928143;28;20498;-61
2023/09/13 01:25:03;;;;;;;0.10;0.10;;;;;;;;;;4901154;29;20083;-63
2023/09/13 01:27:31;;;;;;;0.20;0.20;;;;;;;;;;4900216;29;20043;-60
2023/09/13 01:29:58;;;;;;;0.20;0.20;;;;;;;;;;4898330;29;20132;-59
2023/09/13 01:32:24;;;;;;;;;;;;;;;;;;4927706;28;20065;-60
2023/09/13 01:34:49;;;;;;;0.10;0.10;;;;;;;;;;4901062;29;19923;-59
2023/09/13 01:37:14;;;;;;;0.10;0.10;;;;;;;;;;4901715;29;20043;-61
2023/09/13 01:39:40;;;;;;;0.20;0.20;;;;;;;;;;4901924;29;20040;-63
2023/09/13 01:42:06;;;;;;;0.20;0.20;;;;;;;;;;4903053;29;20119;-60
2023/09/13 01:44:34;;;;;;;0.20;0.20;;;;;;;;;;4900770;29;20149;-61
2023/09/13 01:46:59;;;;;;;;;;;;;;;;;;4908115;29;20040;-63
2023/09/13 01:49:26;;;;;;;0.10;0.10;;;;;;;;;;4902270;29;19915;-62
2023/09/13 01:51:51;;;;;;;0.20;0.20;;;;;;;;;;4901129;29;20027;-61
2023/09/13 01:54:20;;;;;;;0.20;0.20;;;;;;;;;;4900278;29;20048;-64
2023/09/13 01:56:45;;;;;;;0.20;0.20;;;;;;;;;;4900051;29;20179;-62
2023/09/13 01:59:11;;;;;;;0.20;0.20;;;;;;;;;;4901106;29;20446;-63
2023/09/13 02:01:36;;;;;;;0.15;0.15;;;;;;;;;;4908017;29;20035;-61
2023/09/13 02:04:04;;;;;;;0.15;0.15;;;;;;;;;;4899864;29;20040;-59
2023/09/13 02:06:29;;;;;;;0.10;0.10;;;;;;;;;;4925600;28;20391;-63
2023/09/13 02:08:55;;;;;;;0.20;0.20;;;;;;;;;;4907387;29;20027;-61
2023/09/13 02:11:21;;;;;;;0.10;0.10;;;;;;;;;;4904891;29;20043;-61
2023/09/13 02:13:47;;;;;;;0.20;0.20;;;;;;;;;;4928606;28;20116;-61
2023/09/13 02:16:18;;;;;;;0.20;0.20;;;;;;;;;;4899208;29;20539;-60
2023/09/13 02:18:43;;;;;;;0.20;0.20;;;;;;;;;;4898902;29;20092;-63
2023/09/13 02:21:09;;;;;;;0.10;0.10;;;;;;;;;;4901295;29;20040;-61
2023/09/13 02:23:35;;;;;;;0.20;0.20;;;;;;;;;;4913628;28;20123;-62
2023/09/13 02:26:00;;;;;;;0.20;0.20;;;;;;;;;;4897964;29;20151;-60
2023/09/13 02:28:27;;;;;;;0.10;0.10;;;;;;;;;;4901011;29;20044;-62
2023/09/13 02:30:53;;;;;;;0.20;0.20;;;;;;;;;;4912830;29;20466;-62
2023/09/13 02:33:18;;;;;;;0.10;0.10;;;;;;;;;;4896895;29;20048;-64
2023/09/13 02:35:45;;;;;;;0.20;0.20;;;;;;;;;;4913801;29;20130;-61
2023/09/13 02:38:10;;;;;;;0.20;0.20;;;;;;;;;;4902038;29;20761;-60
2023/09/13 02:40:36;;;;;;;0.10;0.10;;;;;;;;;;4902434;29;20047;-60
2023/09/13 02:43:01;;;;;;;0.20;0.20;;;;;;;;;;4927342;28;20050;-62
2023/09/13 02:45:27;;;;;;;0.10;0.10;;;;;;;;;;4926502;28;20048;-59
2023/09/13 02:47:52;;;;;;;0.20;0.20;;;;;;;;;;4914492;29;21596;-60
2023/09/13 02:50:18;;;;;;;0.20;0.20;;;;;;;;;;4889840;29;20029;-60
2023/09/13 02:52:43;;;;;;;0.20;0.20;;;;;;;;;;4899374;29;20529;-64
2023/09/13 02:55:08;;;;;;;0.10;0.10;;;;;;;;;;4901011;29;20899;-60
2023/09/13 02:57:34;;;;;;;0.20;0.20;;;;;;;;;;4899868;29;20107;-61
2023/09/13 03:00:00;;;;;;;0.20;0.20;;;;;;;;;;4900952;29;20467;-61
2023/09/13 03:02:26;;;;;;;0.20;0.20;;;;;;;;;;4912052;29;20033;-63
2023/09/13 03:04:52;;;;;;;0.20;0.20;;;;;;;;;;4905648;29;20064;-62
2023/09/13 03:07:18;;;;;;;0.20;0.20;;;;;;;;;;4907276;29;20038;-62
2023/09/13 03:09:45;;;;;;;0.20;0.20;;;;;;;;;;4898898;29;20036;-62
2023/09/13 03:12:11;;;;;;;0.20;0.20;;;;;;;;;;4905327;29;20376;-61
2023/09/13 03:14:36;;;;;;;0.20;0.20;;;;;;;;;;4898970;29;20044;-59
2023/09/13 03:17:02;;;;;;;0.10;0.10;;;;;;;;;;4899026;29;20458;-61
2023/09/13 03:19:29;;;;;;;0.20;0.20;;;;;;;;;;4900349;29;21115;-60
2023/09/13 03:21:54;;;;;;;0.10;0.10;;;;;;;;;;4898255;29;20036;-61
2023/09/13 03:24:20;;;;;;;0.10;0.10;;;;;;;;;;4897867;29;20043;-63
2023/09/13 03:26:45;;;;;;;0.10;0.10;;;;;;;;;;4913518;29;20422;-60
2023/09/13 03:29:11;;;;;;;0.20;0.20;;;;;;;;;;4895293;29;20111;-61
2023/09/13 03:31:38;;;;;;;0.10;0.10;;;;;;;;;;4898242;29;20090;-60
2023/09/13 03:34:06;;;;;;;0.20;0.20;;;;;;;;;;4904511;29;20380;-60
2023/09/13 03:36:33;;;;;;;0.20;0.20;;;;;;;;;;4899274;29;20748;-63
2023/09/13 03:39:00;;;;;;;0.20;0.20;;;;;;;;;;4904342;29;20052;-64
2023/09/13 03:41:27;;;;;;;0.20;0.20;;;;;;;;;;4900986;29;20032;-61
2023/09/13 03:43:53;;;;;;;0.20;0.20;;;;;;;;;;4899173;29;20047;-62
2023/09/13 03:46:19;;;;;;;0.20;0.20;;;;;;;;;;4927570;28;21896;-61
2023/09/13 03:48:47;;;;;;;0.20;0.20;;;;;;;;;;4898177;29;20040;-61
2023/09/13 03:51:12;;;;;;;0.20;0.20;;;;;;;;;;4901311;29;20062;-62
2023/09/13 03:53:38;;;;;;;0.20;0.20;;;;;;;;;;4899144;29;20047;-61
2023/09/13 03:56:03;;;;;;;0.20;0.20;;;;;;;;;;4898988;29;20037;-59
2023/09/13 03:58:29;;;;;;;0.20;0.20;;;;;;;;;;4913135;29;20079;-66
2023/09/13 04:00:55;;;;;;;0.20;0.20;;;;;;;;;;4898968;29;20032;-61
2023/09/13 04:03:21;;;;;;;0.20;0.20;;;;;;;;;;4900165;29;20040;-63
2023/09/13 04:05:46;;;;;;;0.20;0.20;;;;;;;;;;4925830;28;20036;-61
2023/09/13 04:08:12;;;;;;;0.20;0.20;;;;;;;;;;4900426;29;20072;-59
2023/09/13 04:10:37;;;;;;;0.20;0.20;;;;;;;;;;4907551;29;20162;-61
2023/09/13 04:13:03;;;;;;;0.20;0.20;;;;;;;;;;4898432;29;20033;-63
2023/09/13 04:15:28;;;;;;;0.20;0.20;;;;;;;;;;4911713;29;20041;-63
2023/09/13 04:17:54;;;;;;;0.20;0.20;;;;;;;;;;4929009;28;20032;-61
2023/09/13 04:20:22;;;;;;;0.20;0.20;;;;;;;;;;4901960;29;20402;-63
2023/09/13 04:22:48;;;;;;;0.10;0.10;;;;;;;;;;4926902;28;20126;-61
2023/09/13 04:25:13;;;;;;;0.20;0.20;;;;;;;;;;4923687;28;20042;-62
2023/09/13 04:27:42;;;;;;;0.20;0.20;;;;;;;;;;4895944;29;20032;-62
2023/09/13 04:30:07;;;;;;;0.20;0.20;;;;;;;;;;4898945;29;20141;-63
2023/09/13 04:32:34;;;;;;;0.20;0.20;;;;;;;;;;4898868;29;20086;-62
2023/09/13 04:35:00;;;;;;;0.20;0.20;;;;;;;;;;4899177;29;20422;-61
2023/09/13 04:37:26;;;;;;;0.10;0.10;;;;;;;;;;4900476;29;20388;-65
2023/09/13 04:39:51;;;;;;;0.20;0.20;;;;;;;;;;4901313;29;20037;-63
2023/09/13 04:42:17;;;;;;;0.20;0.20;;;;;;;;;;4896815;29;20450;-62
2023/09/13 04:44:43;;;;;;;0.20;0.20;;;;;;;;;;4918146;29;20200;-63
2023/09/13 04:47:08;;;;;;;0.20;0.20;;;;;;;;;;4900389;29;20032;-63
2023/09/13 04:49:35;;;;;;;0.20;0.20;;;;;;;;;;4899156;29;20036;-65
2023/09/13 04:52:02;;;;;;;;;;;;;;;;;;4897787;29;20028;-65
2023/09/13 04:54:27;;;;;;;0.20;0.20;;;;;;;;;;4896163;29;19961;-61
2023/09/13 04:56:53;;;;;;;0.20;0.20;;;;;;;;;;4897654;29;20122;-63
2023/09/13 04:59:18;;;;;;;0.20;0.20;;;;;;;;;;4927960;28;20451;-66
2023/09/13 05:01:44;;;;;;;0.20;0.20;;;;;;;;;;4911049;29;20522;-62
2023/09/13 05:04:10;;;;;;;0.20;0.20;;;;;;;;;;4895870;29;20045;-61
2023/09/13 05:06:35;;;;;;;0.20;0.20;;;;;;;;;;4899120;29;20199;-62
2023/09/13 05:09:00;;;;;;;0.20;0.20;;;;;;;;;;4893652;29;20117;-67
2023/09/13 05:11:26;;;;;;;0.10;0.10;;;;;;;;;;4899847;29;21541;-62
2023/09/13 05:14:07;;;;;;;0.20;0.20;;;;;;;;;;4926932;28;20040;-61
2023/09/13 05:16:32;;;;;;;0.20;0.20;;;;;;;;;;4899238;29;20039;-64
2023/09/13 05:18:57;;;;;;;0.20;0.20;;;;;;;;;;4902172;29;20036;-62
2023/09/13 05:21:22;;;;;;;0.20;0.20;;;;;;;;;;4897365;29;20132;-63
2023/09/13 05:23:48;;;;;;;0.20;0.20;;;;;;;;;;4904213;29;20028;-65
2023/09/13 05:26:13;;;;;;;0.20;0.20;;;;;;;;;;4903320;29;20046;-63
2023/09/13 05:28:38;;;;;;;0.20;0.20;;;;;;;;;;4905633;29;20057;-61
2023/09/13 05:31:04;;;;;;;0.20;0.20;;;;;;;;;;4898918;29;20028;-61
2023/09/13 05:33:29;;;;;;;0.20;0.20;;;;;;;;;;4930686;28;20111;-63
2023/09/13 05:35:54;;;;;;;0.20;0.20;;;;;;;;;;4900933;29;20482;-59
2023/09/13 05:38:20;;;;;;;0.20;0.20;;;;;;;;;;4902683;29;20688;-61
2023/09/13 05:40:45;;;;;;;0.20;0.20;;;;;;;;;;4908592;29;20032;-60
2023/09/13 05:43:11;;;;;;;0.20;0.20;;;;;;;;;;4903769;29;20035;-62
2023/09/13 05:45:36;;;;;;;0.20;0.20;;;;;;;;;;4902280;29;20032;-61
2023/09/13 05:48:02;;;;;;;0.20;0.20;;;;;;;;;;4930653;28;20041;-64
2023/09/13 05:50:27;;;;;;;0.20;0.20;;;;;;;;;;4900807;29;20115;-63
2023/09/13 05:52:53;;;;;;;0.20;0.20;;;;;;;;;;4899699;29;21683;-62
2023/09/13 05:55:18;;;;;;;0.20;0.20;;;;;;;;;;4903723;29;20756;-62
2023/09/13 05:57:43;;;;;;;0.20;0.20;;;;;;;;;;4903232;29;20033;-62
2023/09/13 06:00:11;;;;;;;0.10;0.10;;;;;;;;;;4904303;29;20114;-61
2023/09/13 06:02:39;;;;;;;0.20;0.20;;;;;;;;;;4906241;29;20038;-63
2023/09/13 06:05:05;;;;;;;0.10;0.10;;;;;;;;;;4929656;28;20051;-62
2023/09/13 06:07:30;;;;;;;0.20;0.20;;;;;;;;;;4922354;29;20711;-62
2023/09/13 06:09:56;;;;;;;0.10;0.10;;;;;;;;;;4902603;29;20035;-66
2023/09/13 06:12:21;;;;;;;0.20;0.20;;;;;;;;;;4902410;29;20102;-61
2023/09/13 06:14:46;;;;;;;0.20;0.20;;;;;;;;;;4902398;29;20043;-61
2023/09/13 06:17:12;;;;;;;0.20;0.20;;;;;;;;;;4931170;28;20072;-63
2023/09/13 06:19:37;;;;;;;0.10;0.10;;;;;;;;;;4901779;29;20025;-62
2023/09/13 06:22:03;;;;;;;0.20;0.20;;;;;;;;;;4906589;29;20032;-64
2023/09/13 06:24:28;;;;;;;0.20;0.20;;;;;;;;;;4907962;29;20878;-62
2023/09/13 06:26:54;;;;;;;0.10;0.10;;;;;;;;;;4901598;29;20090;-62
2023/09/13 06:29:19;;;;;;;0.20;0.20;;;;;;;;;;4903010;29;20020;-63
2023/09/13 06:31:46;;;;;;;0.10;0.10;;;;;;;;;;4900285;29;20031;-62
2023/09/13 06:34:11;;;;;;;0.10;0.10;;;;;;;;;;4905366;29;20122;-63
2023/09/13 06:36:36;;;;;;;0.10;0.10;;;;;;;;;;4901542;29;20136;-62
2023/09/13 06:39:02;;;;;;;0.10;0.10;;;;;;;;;;4898393;29;20094;-61
2023/09/13 06:41:27;;;;;;;0.10;0.10;;;;;;;;;;4899357;29;20463;-60
2023/09/13 06:43:53;;;;;;;0.10;0.10;;;;;;;;;;4916805;29;20043;-61
2023/09/13 06:46:18;;;;;;;0.10;0.10;;;;;;;;;;4894452;29;20036;-67
2023/09/13 06:48:43;;;;;;;0.10;0.10;;;;;;;;;;4890317;29;20139;-60
2023/09/13 06:51:09;;;;;;;0.10;0.10;;;;;;;;;;4892589;29;20031;-62
2023/09/13 06:53:34;;;;;;;0.10;0.10;;;;;;;;;;4900024;29;20060;-64
2023/09/13 06:55:59;;;;;;;0.10;0.10;;;;;;;;;;4895360;29;20150;-60
2023/09/13 06:58:25;;;;;;;0.10;0.10;;;;;;;;;;4896829;29;20095;-64
2023/09/13 07:00:50;;;;;;;0.10;0.10;;;;;;;;;;4931976;28;20177;-64
2023/09/13 07:03:15;;;;;;;0.10;0.10;;;;;;;;;;4902599;29;20074;-60
2023/09/13 07:05:42;;;;;;;0.10;0.10;;;;;;;;;;4898622;29;20038;-63
2023/09/13 07:08:08;;;;;;;0.10;0.10;;;;;;;;;;4892378;29;20060;-61
2023/09/13 07:10:33;;;;;;;0.10;0.10;;;;;;;;;;4893612;29;20036;-61
2023/09/13 07:12:59;;;;;;;0.10;0.10;;;;;;;;;;4898896;29;20083;-61
2023/09/13 07:15:25;;;;;;;0.10;0.10;;;;;;;;;;4900738;29;20047;-61
2023/09/13 07:17:51;;;;;;;0.10;0.10;;;;;;;;;;4893882;28;20044;-63
2023/09/13 07:20:16;;;;;;;0.10;0.10;;;;;;;;;;4893990;29;20033;-62
2023/09/13 07:22:42;;;;;;;0.10;0.10;;;;;;;;;;4894171;29;20494;-60
2023/09/13 07:25:07;;;;;;;0.10;0.10;;;;;;;;;;4897058;29;20044;-61
2023/09/13 07:27:32;;;;;;;0.10;0.10;;;;;;;;;;4891408;29;20378;-63
2023/09/13 07:29:58;;;;;;;0.10;0.10;;;;;;;;;;4897424;29;20076;-63
2023/09/13 07:32:23;;;;;;;0.10;0.10;;;;;;;;;;4889492;29;20080;-60
2023/09/13 07:34:48;;;;;;;0.10;0.10;;;;;;;;;;4920219;28;20143;-61
2023/09/13 07:37:14;;;;;;;0.10;0.10;;;;;;;;;;4896063;29;20032;-62
2023/09/13 07:39:41;;;;;;;0.10;0.10;;;;;;;;;;4891556;29;20033;-61
2023/09/13 07:42:06;;;;;;;0.10;0.10;;;;;;;;;;4894202;29;20036;-63
2023/09/13 07:44:32;;;;;;;0.10;0.10;;;;;;;;;;4894167;29;20040;-62
2023/09/13 07:46:57;;;;;;;0.10;0.10;;;;;;;;;;4891480;29;20493;-62
2023/09/13 07:49:24;;;;;;;0.20;0.20;;;;;;;;;;4894559;29;20044;-62
2023/09/13 07:51:49;;;;;;;0.10;0.10;;;;;;;;;;4918897;28;21129;-61
2023/09/13 07:54:15;;;;;;;0.20;0.20;;;;;;;;;;4897877;29;20503;-61
2023/09/13 07:56:40;;;;;;;0.10;0.10;;;;;;;;;;4892399;29;20044;-63
2023/09/13 07:59:08;;;;;;;0.10;0.10;;;;;;;;;;4890706;29;20040;-60
2023/09/13 08:01:33;;;;;;;0.10;0.10;;;;;;;;;;4896662;29;20029;-61
2023/09/13 08:03:59;;;;;;;0.10;0.10;;;;;;;;;;4892283;29;20036;-62
2023/09/13 08:06:24;;;;;;;0.10;0.10;;;;;;;;;;4894278;29;20039;-60
2023/09/13 08:08:49;;;;;;;0.10;0.10;;;;;;;;;;4896696;29;20040;-60
2023/09/13 08:11:15;;;;;;;0.10;0.10;;;;;;;;;;4893760;29;20043;-65
2023/09/13 08:13:40;;;;;;;0.10;0.10;;;;;;;;;;4903104;29;20588;-60
2023/09/13 08:16:05;;;;;;;0.10;0.10;;;;;;;;;;4890781;29;20032;-61
2023/09/13 08:18:31;;;;;;;0.10;0.10;;;;;;;;;;4909848;29;20040;-65
2023/09/13 08:20:56;;;;;;;0.10;0.10;;;;;;;;;;4890558;29;20113;-62
2023/09/13 08:23:21;;;;;;;0.10;0.10;;;;;;;;;;4890226;29;20096;-60
2023/09/13 08:25:47;;;;;;;0.10;0.10;;;;;;;;;;4896955;29;20380;-65
2023/09/13 08:28:12;;;;;;;0.10;0.10;;;;;;;;;;4891167;29;20048;-60
2023/09/13 08:30:38;;;;;;;0.10;0.10;;;;;;;;;;4894484;29;20052;-66
2023/09/13 08:33:03;;;;;;;0.10;0.10;;;;;;;;;;4892793;29;20435;-62
2023/09/13 08:35:28;;;;;;;0.10;0.10;;;;;;;;;;4891073;29;20036;-63
2023/09/13 08:37:54;;;;;;;0.10;0.10;;;;;;;;;;4895736;29;20068;-63
2023/09/13 08:40:20;;;;;;;0.10;0.10;;;;;;;;;;4891210;29;20941;-60
2023/09/13 08:42:46;;;;;;;0.10;0.10;;;;;;;;;;4896420;29;20044;-60
2023/09/13 08:45:12;;;;;;;0.10;0.10;;;;;;;;;;4893215;29;20043;-59
2023/09/13 08:47:42;;;;;;;0.10;0.10;;;;;;;;;;4917310;28;20040;-61
2023/09/13 08:50:08;;;;;;;0.10;0.10;;;;;;;;;;4893437;29;20028;-64
2023/09/13 08:52:35;;;;;;;0.10;0.10;;;;;;;;;;4891746;29;20044;-63
2023/09/13 08:55:01;;;;;;;0.10;0.10;;;;;;;;;;4894941;29;20035;-60
2023/09/13 08:57:26;;;;;;;0.10;0.10;;;;;;;;;;4900263;29;20036;-62
2023/09/13 08:59:52;;;;;;;0.10;0.10;;;;;;;;;;4895189;29;20040;-61
2023/09/13 09:02:21;;;;;;;0.10;0.10;;;;;;;;;;4898321;29;20048;-61
2023/09/13 09:04:47;;;;;;;0.10;0.10;;;;;;;;;;4894709;29;20087;-62
2023/09/13 09:07:13;;;;;;;0.00;0.00;;;;;;;;;;4893974;29;20119;-61
2023/09/13 09:09:39;;;;;;;0.00;0.00;;;;;;;;;;4899588;29;20051;-59
2023/09/13 09:12:06;;;;;;;0.10;0.10;;;;;;;;;;4894529;29;20147;-58
2023/09/13 09:14:32;;;;;;;0.10;0.10;;;;;;;;;;4899308;29;20119;-60
2023/09/13 09:16:58;;;;;;;0.10;0.10;;;;;;;;;;4892502;29;20029;-62
2023/09/13 09:19:24;;;;;;;0.10;0.10;;;;;;;;;;4893762;29;20048;-59
2023/09/13 09:21:49;;;;;;;0.10;0.10;;;;;;;;;;4901586;29;20160;-62
2023/09/13 09:24:15;;;;;;;0.10;0.10;;;;;;;;;;4896664;29;20368;-60
2023/09/13 09:26:40;;;;;;;0.10;0.10;;;;;;;;;;4899234;29;20541;-60
2023/09/13 09:29:12;;;;;;;0.10;0.10;;;;;;;;;;4895795;29;20032;-62
2023/09/13 09:31:38;;;;;;;0.10;0.10;;;;;;;;;;4922615;28;20047;-59
2023/09/13 09:34:04;;;;;;;0.10;0.10;;;;;;;;;;4897587;29;20419;-61
2023/09/13 09:36:35;;;;;;;0.10;0.10;;;;;;;;;;4924950;28;20080;-62
2023/09/13 09:39:01;;;;;;;0.10;0.10;;;;;;;;;;4898742;29;20539;-58
2023/09/13 09:41:30;;;;;;;0.10;0.10;;;;;;;;;;4894915;29;20032;-61
2023/09/13 09:43:55;;;;;;;0.10;0.10;;;;;;;;;;4893137;29;20034;-61
2023/09/13 09:46:21;;;;;;;0.10;0.10;;;;;;;;;;4923678;28;20045;-64
2023/09/13 09:48:47;;;;;;;0.10;0.10;;;;;;;;;;4891039;29;20124;-59
2023/09/13 09:51:13;;;;;;;0.10;0.10;;;;;;;;;;4898175;29;20051;-59
2023/09/13 09:53:39;;;;;;;0.10;0.10;;;;;;;;;;4895860;29;20033;-60
2023/09/13 09:56:04;;;;;;;0.10;0.10;;;;;;;;;;4896706;29;20034;-59
2023/09/13 09:58:29;;;;;;;0.10;0.10;;;;;;;;;;4897181;29;20041;-59
2023/09/13 10:00:55;;;;;;;0.10;0.10;;;;;;;;;;4892238;29;20036;-62
2023/09/13 10:03:21;;;;;;;0.10;0.10;;;;;;;;;;4897004;29;20887;-60
2023/09/13 10:05:50;;;;;;;0.10;0.10;;;;;;;;;;4895432;29;20155;-60
2023/09/13 10:08:15;;;;;;;0.10;0.10;;;;;;;;;;4921312;28;20036;-61
2023/09/13 10:10:40;;;;;;;0.10;0.10;;;;;;;;;;4896845;29;20111;-60
2023/09/13 10:13:06;;;;;;;0.10;0.10;;;;;;;;;;4890729;29;20056;-61
2023/09/13 10:15:31;;;;;;;0.10;0.10;;;;;;;;;;4896336;29;20493;-65
2023/09/13 10:18:00;;;;;;;0.10;0.10;;;;;;;;;;4893661;29;20742;-59
2023/09/13 10:20:27;;;;;;;0.10;0.10;;;;;;;;;;4892540;29;20041;-62
2023/09/13 10:22:54;;;;;;;0.10;0.10;;;;;;;;;;4925240;28;20057;-60
2023/09/13 10:25:19;;;;;;;0.10;0.10;;;;;;;;;;4890787;29;20087;-60
2023/09/13 10:27:48;;;;;;;0.10;0.10;;;;;;;;;;4892882;29;20151;-60
2023/09/13 10:30:15;;;;;;;0.08;0.08;;;;;;;;;;4897945;29;20110;-59
2023/09/13 10:32:47;;;;;;;0.10;0.10;;;;;;;;;;4894357;29;20116;-59
2023/09/13 10:35:13;;;;;;;0.10;0.10;;;;;;;;;;4912225;29;20538;-62
2023/09/13 10:37:42;;;;;;;0.10;0.10;;;;;;;;;;4891118;29;20040;-59
2023/09/13 10:40:22;;;;;;;0.00;0.00;;;;;;;;;;4919640;28;20028;-60
2023/09/13 10:42:48;;;;;;;0.10;0.10;;;;;;;;;;4898643;29;20144;-59
2023/09/13 10:45:18;;;;;;;0.10;0.10;;;;;;;;;;4892426;29;20027;-60
2023/09/13 10:47:44;;;;;;;0.10;0.10;;;;;;;;;;4898486;29;20044;-60
2023/09/13 10:50:09;;;;;;;0.00;0.00;;;;;;;;;;4893682;29;20491;-61
2023/09/13 10:52:35;;;;;;;0.00;0.00;;;;;;;;;;4892925;29;20048;-63
2023/09/13 10:55:04;;;;;;;0.00;0.00;;;;;;;;;;4896123;29;20060;-62
2023/09/13 10:57:31;;;;;;;0.10;0.10;;;;;;;;;;4894647;29;20036;-60
2023/09/13 10:59:56;;;;;;;0.00;0.00;;;;;;;;;;4892783;29;20128;-64
2023/09/13 11:02:22;;;;;;;0.00;0.00;;;;;;;;;;4895816;29;20115;-61
2023/09/13 11:04:48;;;;;;;0.03;0.03;;;;;;;;;;4897300;29;20032;-60
2023/09/13 11:07:16;;;;;;;0.00;0.00;;;;;;;;;;4895161;29;20056;-60
2023/09/13 11:09:43;;;;;;;0.10;0.10;;;;;;;;;;4896541;29;20498;-62
2023/09/13 11:12:11;;;;;;;0.10;0.10;;;;;;;;;;4891389;29;20046;-60
2023/09/13 11:14:36;;;;;;;0.10;0.10;;;;;;;;;;4895943;29;20767;-63
2023/09/13 11:17:08;;;;;;;0.10;0.10;;;;;;;;;;4891522;29;20154;-64
2023/09/13 11:19:34;;;;;;;0.10;0.10;;;;;;;;;;4896781;29;20104;-62
2023/09/13 11:22:03;;;;;;;0.10;0.10;;;;;;;;;;4891728;29;20037;-65
2023/09/13 11:24:43;;;;;;;0.10;0.10;;;;;;;;;;4894600;29;20519;-61
2023/09/13 11:27:18;;;;;;;0.10;0.10;;;;;;;;;;4924752;28;20088;-63
2023/09/13 11:29:44;;;;;;;0.10;0.10;;;;;;;;;;4891287;29;20044;-61
2023/09/13 11:32:20;;;;;;;0.10;0.10;;;;;;;;;;4894134;29;20036;-66
2023/09/13 11:34:52;;;;;;;0.00;0.00;;;;;;;;;;4897877;29;20048;-61
2023/09/13 11:37:17;;;;;;;0.10;0.10;;;;;;;;;;4889547;29;20538;-61
2023/09/13 11:39:43;;;;;;;0.00;0.00;;;;;;;;;;4896632;29;20541;-61
2023/09/13 11:42:09;;;;;;;0.00;0.00;;;;;;;;;;4892048;29;20028;-59
2023/09/13 11:44:35;;;;;;;0.00;0.00;;;;;;;;;;4891058;29;20040;-63
2023/09/13 11:47:01;;;;;;;0.10;0.10;;;;;;;;;;4896952;29;20032;-61
2023/09/13 11:49:26;;;;;;;0.10;0.10;;;;;;;;;;4891135;29;20044;-61
2023/09/13 11:51:52;;;;;;;0.00;0.00;;;;;;;;;;4897365;29;20035;-61
2023/09/13 11:54:21;;;;;;;0.00;0.00;;;;;;;;;;4894682;29;20040;-60
2023/09/13 11:56:47;;;;;;;0.00;0.00;;;;;;;;;;4892713;29;20123;-61
2023/09/13 11:59:12;;;;;;;0.03;0.03;;;;;;;;;;4899975;29;20040;-59
2023/09/13 12:01:45;;;;;;;0.00;0.00;;;;;;;;;;4891317;29;20047;-60
2023/09/13 12:04:11;;;;;;;0.05;0.05;;;;;;;;;;4896269;29;20047;-61
2023/09/13 12:06:43;;;;;;;0.00;0.00;;;;;;;;;;4892404;29;20036;-60
2023/09/13 12:09:12;;;;;;;0.00;0.00;;;;;;;;;;4895716;29;20107;-60
2023/09/13 12:11:39;;;;;;;0.00;0.00;;;;;;;;;;4896948;29;20032;-62
2023/09/13 12:14:04;;;;;;;;;;;;;;;;;;4893125;29;20028;-61
2023/09/13 12:16:30;;;;;;;0.00;0.00;;;;;;;;;;4926799;28;20321;-65
2023/09/13 12:18:56;;;;;;;0.00;0.00;;;;;;;;;;4896546;29;20019;-61
2023/09/13 12:21:21;;;;;;;0.00;0.00;;;;;;;;;;4892169;28;20032;-62
2023/09/13 12:23:46;;;;;;;0.00;0.00;;;;;;;;;;4894581;29;20028;-61
2023/09/13 12:26:13;;;;;;;0.07;0.07;;;;;;;;;;4895107;29;20039;-60
2023/09/13 12:28:39;;;;;;;0.00;0.00;;;;;;;;;;4896382;29;20182;-66
2023/09/13 12:31:09;;;;;;;0.00;0.00;;;;;;;;;;4899207;29;20052;-61
2023/09/13 12:33:35;;;;;;;0.00;0.00;;;;;;;;;;4895827;29;20032;-63
2023/09/13 12:36:04;;;;;;;0.00;0.00;;;;;;;;;;4900758;29;20111;-62
2023/09/13 12:38:43;;;;;;;0.00;0.00;;;;;;;;;;4896144;29;20059;-63
2023/09/13 12:41:09;;;;;;;0.00;0.00;;;;;;;;;;4896306;29;20475;-60
2023/09/13 12:43:39;;;;;;;0.00;0.00;;;;;;;;;;4900874;29;20036;-62
2023/09/13 12:46:05;;;;;;;0.00;0.00;;;;;;;;;;4894536;29;20048;-62
2023/09/13 12:48:31;;;;;;;0.05;0.05;;;;;;;;;;4900284;29;20884;-61
2023/09/13 12:50:58;;;;;;;0.00;0.00;;;;;;;;;;4899832;29;20086;-64
2023/09/13 12:53:27;;;;;;;0.00;0.00;;;;;;;;;;4900265;29;20043;-63
2023/09/13 12:55:52;;;;;;;0.00;0.00;;;;;;;;;;4901253;29;20041;-60
2023/09/13 12:58:18;;;;;;;0.00;0.00;;;;;;;;;;4895925;29;20837;-62
2023/09/13 13:01:00;;;;;;;0.00;0.00;;;;;;;;;;4932929;28;20037;-61
2023/09/13 13:03:28;;;;;;;0.00;0.00;;;;;;;;;;4900430;29;20112;-61
2023/09/13 13:05:54;;;;;;;0.00;0.00;;;;;;;;;;4895233;29;20048;-64
2023/09/13 13:08:19;;;;;;;0.00;0.00;;;;;;;;;;4901721;29;20031;-62
2023/09/13 13:10:58;;;;;;;0.00;0.00;;;;;;;;;;4896028;29;20573;-62
2023/09/13 13:13:36;;;;;;;0.00;0.00;;;;;;;;;;4894131;29;20455;-62
2023/09/13 13:16:11;;;;;;;0.00;0.00;;;;;;;;;;4902898;29;20043;-61
2023/09/13 13:18:44;;;;;;;0.00;0.00;;;;;;;;;;4893650;29;20052;-61
2023/09/13 13:21:12;;;;;;;0.00;0.00;;;;;;;;;;4894110;29;20058;-60
2023/09/13 13:23:42;;;;;;;0.00;0.00;;;;;;;;;;4907835;29;20037;-60
2023/09/13 13:26:07;;;;;;;0.00;0.00;;;;;;;;;;4895907;29;20032;-60
2023/09/13 13:28:32;;;;;;;0.00;0.00;;;;;;;;;;4899224;29;20036;-61
2023/09/13 13:30:58;;;;;;;0.00;0.00;;;;;;;;;;4895750;29;20044;-60
2023/09/13 13:33:23;;;;;;;0.00;0.00;;;;;;;;;;4894176;29;20116;-60
2023/09/13 13:35:49;;;;;;;0.00;0.00;;;;;;;;;;4902158;29;20119;-61
2023/09/13 13:38:15;;;;;;;0.00;0.00;;;;;;;;;;4893654;29;20120;-60
2023/09/13 13:40:40;;;;;;;0.00;0.00;;;;;;;;;;4898671;29;20065;-62
2023/09/13 13:43:05;;;;;;;0.00;0.00;;;;;;;;;;4893703;29;20039;-60
2023/09/13 13:45:31;;;;;;;0.00;0.00;;;;;;;;;;4894718;29;20475;-59
2023/09/13 13:47:56;;;;;;;0.00;0.00;;;;;;;;;;4898072;29;20039;-61
2023/09/13 13:50:21;;;;;;;0.00;0.00;;;;;;;;;;4895700;29;20051;-60
2023/09/13 13:52:47;;;;;;;0.00;0.00;;;;;;;;;;4900763;29;20036;-60
2023/09/13 13:55:12;;;;;;;0.00;0.00;;;;;;;;;;4896513;29;20031;-64
2023/09/13 13:57:38;;;;;;;0.00;0.00;;;;;;;;;;4895306;29;20082;-61
2023/09/13 14:00:04;;;;;;;0.00;0.00;;;;;;;;;;4901736;29;20487;-61
2023/09/13 14:02:37;;;;;;;0.00;0.00;;;;;;;;;;4894446;29;20044;-59
2023/09/13 14:05:03;;;;;;;0.00;0.00;;;;;;;;;;4897819;29;20061;-61
2023/09/13 14:07:29;;;;;;;0.00;0.00;;;;;;;;;;4894690;29;20041;-60
2023/09/13 14:09:54;;;;;;;0.00;0.00;;;;;;;;;;4885160;28;20143;-59
2023/09/13 14:12:19;;;;;;;0.00;0.00;;;;;;;;;;4900886;29;20784;-60
2023/09/13 14:14:44;;;;;;;0.00;0.00;;;;;;;;;;4892975;29;20043;-63
2023/09/13 14:17:10;;;;;;;0.00;0.00;;;;;;;;;;4929770;28;20032;-63
2023/09/13 14:19:35;;;;;;;0.00;0.00;;;;;;;;;;4891970;29;20028;-61
2023/09/13 14:22:01;;;;;;;0.03;0.03;;;;;;;;;;4894407;29;20097;-61
2023/09/13 14:24:26;;;;;;;0.00;0.00;;;;;;;;;;4896659;29;20500;-60
2023/09/13 14:26:51;;;;;;;0.00;0.00;;;;;;;;;;4896136;29;20175;-60
2023/09/13 14:29:17;;;;;;;0.00;0.00;;;;;;;;;;4898298;29;20119;-62
2023/09/13 14:31:42;;;;;;;0.00;0.00;;;;;;;;;;4891962;29;20176;-63
2023/09/13 14:34:08;;;;;;;0.00;0.00;;;;;;;;;;4886087;29;20063;-59
2023/09/13 14:36:33;;;;;;;0.00;0.00;;;;;;;;;;4893581;29;20040;-60
2023/09/13 14:38:58;;;;;;;0.00;0.00;;;;;;;;;;4893379;29;20029;-60
2023/09/13 14:41:24;;;;;;;0.10;0.10;;;;;;;;;;4893674;29;20692;-59